Koolburra Airport


Codes: YKLB/KKP
Name: Koolburra Airport
City: Koolburra
Country: Australia
Elevation: 350 ft.

Photos at Koolburra Airport


   Photos courtesy of SpottingLog. You can add your own sightings and photos by signing up for a free trial today.



No photos found.

Weather at Koolburra Airport


Time (UTC)DescriptionTempratureWindCloud coverageVisibilityPressureHumidity
18-Apr-2024 00:00Overcast Clouds24°C11 mph, E89%10000m1012hPa80%
18-Apr-2024 03:00Overcast Clouds27°C13 mph, E96%10000m1010hPa69%
18-Apr-2024 06:00Overcast Clouds30°C11 mph, E100%10000m1008hPa62%
18-Apr-2024 09:00Light Rain25°C9 mph, E100%10000m1010hPa83%
18-Apr-2024 12:00Light Rain24°C9 mph, E100%10000m1011hPa87%
18-Apr-2024 15:00Overcast Clouds24°C7 mph, E100%10000m1010hPa89%
18-Apr-2024 18:00Light Rain24°C7 mph, E100%10000m1009hPa91%
18-Apr-2024 21:00Overcast Clouds24°C4 mph, E100%10000m1010hPa91%
19-Apr-2024 00:00Light Rain26°C11 mph, E100%10000m1011hPa81%
19-Apr-2024 03:00Light Rain27°C11 mph, E100%10000m1009hPa79%
19-Apr-2024 06:00Light Rain25°C9 mph, E100%10000m1008hPa87%
19-Apr-2024 09:00Light Rain24°C9 mph, E100%10000m1010hPa91%
19-Apr-2024 12:00Light Rain23°C7 mph, E99%10000m1012hPa93%
19-Apr-2024 15:00Light Rain23°C4 mph, E100%10000m1010hPa93%
19-Apr-2024 18:00Overcast Clouds23°C4 mph, E100%10000m1009hPa92%
19-Apr-2024 21:00Overcast Clouds23°C4 mph, E100%10000m1011hPa92%
20-Apr-2024 00:00Overcast Clouds24°C2 mph, SE100%10000m1012hPa86%
20-Apr-2024 03:00Overcast Clouds25°C7 mph, E100%10000m1010hPa80%
20-Apr-2024 06:00Overcast Clouds26°C4 mph, E100%10000m1008hPa72%
20-Apr-2024 09:00Overcast Clouds24°C4 mph, NE100%10000m1010hPa82%
20-Apr-2024 12:00Light Rain22°C7 mph, NE100%10000m1012hPa94%
20-Apr-2024 15:00Overcast Clouds21°C4 mph, NE100%10000m1010hPa89%
20-Apr-2024 18:00Overcast Clouds21°C2 mph, NE100%10000m1010hPa89%
20-Apr-2024 21:00Overcast Clouds21°C4 mph, E100%10000m1011hPa93%
21-Apr-2024 00:00Overcast Clouds26°C4 mph, E100%10000m1011hPa74%
21-Apr-2024 03:00Overcast Clouds29°C4 mph, SE100%10000m1009hPa59%
21-Apr-2024 06:00Light Rain29°C4 mph, E100%10000m1007hPa65%
21-Apr-2024 09:00Light Rain24°C4 mph, NE100%10000m1009hPa88%
21-Apr-2024 12:00Overcast Clouds23°C4 mph, E95%10000m1011hPa92%
21-Apr-2024 15:00Overcast Clouds23°C4 mph, E100%10000m1009hPa91%
21-Apr-2024 18:00Overcast Clouds22°C2 mph, NE90%10000m1009hPa91%
21-Apr-2024 21:00Broken Clouds22°C4 mph, E78%10000m1010hPa90%
22-Apr-2024 00:00Overcast Clouds28°C9 mph, E87%10000m1011hPa67%
22-Apr-2024 03:00Light Rain29°C9 mph, E86%10000m1008hPa62%
22-Apr-2024 06:00Light Rain29°C9 mph, E90%10000m1006hPa62%
22-Apr-2024 09:00Light Rain25°C4 mph, E76%10000m1008hPa79%
22-Apr-2024 12:00Broken Clouds23°C7 mph, E65%10000m1010hPa81%
22-Apr-2024 15:00Overcast Clouds23°C4 mph, NE96%10000m1009hPa80%
22-Apr-2024 18:00Overcast Clouds23°C4 mph, E98%10000m1008hPa81%
22-Apr-2024 21:00Overcast Clouds23°C4 mph, E100%10000m1010hPa81%